Kaio Maru — JD2067 — position and weather

sailwx.info

Track history (hours):
 
Tides and Currents Weather Stations Pressure Air Temp Water Temp Dewpoint Dewpoint Depression Visibility Wind Speed Wind Dir Waves Ship Positions

Kaio Maru

Last reported at 2014-Oct-31 16:32 UTC. Time now 2014-Oct-31 18:04 UTC.
Position N 35°38' E 139°46'.

Length 36 m; draft 3.2 m.

Type: Tug. MMSI: 431001455.

Date/timePositionNaut miles runAvg speedWind from/ knotsBaromVisibWave heightAir tempDewpointWater temp
2014-Oct-31 16:32N 35°38' E 139°46'0 0.0
2014-Oct-31 15:33N 35°38' E 139°46'0 0.0
2014-Oct-31 14:21N 35°38' E 139°46'0 0.0
2014-Oct-31 11:34N 35°38' E 139°46'0 0.0
2014-Oct-31 00:04N 35°38' E 139°46'0 0.0
2014-Oct-30 23:33N 35°38' E 139°46'2 1.6
2014-Oct-30 22:33N 35°37' E 139°46'4 3.7
2014-Oct-30 21:33N 35°34' E 139°49'5 4.7
2014-Oct-30 20:33N 35°38' E 139°46'0 0.2
2014-Oct-30 18:33N 35°38' E 139°46'0 0.0
2014-Oct-30 00:19N 35°38' E 139°46'0 0.0
2014-Oct-29 23:15N 35°38' E 139°46'0 0.0
2014-Oct-29 22:27N 35°38' E 139°46'0 0.0
2014-Oct-29 21:26N 35°38' E 139°46'0 0.0
2014-Oct-29 20:33N 35°38' E 139°46'0 0.1
2014-Oct-29 16:33N 35°38' E 139°46'0 0.2
2014-Oct-29 15:20N 35°38' E 139°46'0 0.0
2014-Oct-29 14:18N 35°38' E 139°46'0 0.0
2014-Oct-29 13:28N 35°38' E 139°46'4 2.2
2014-Oct-29 11:32N 35°35' E 139°48'3 2.5
2014-Oct-29 10:28N 35°37' E 139°46'2 1.9
2014-Oct-29 09:33N 35°38' E 139°45'2 2.2
2014-Oct-29 08:34N 35°36' E 139°47'2 0.2
2014-Oct-28 21:32N 35°38' E 139°46'0 0.0
2014-Oct-28 20:30N 35°38' E 139°46'0 0.0
2014-Oct-28 19:34N 35°38' E 139°46'0 0.0
2014-Oct-28 18:32N 35°38' E 139°46'0 0.0
2014-Oct-28 17:29N 35°38' E 139°46'0 0.0
2014-Oct-28 16:19N 35°38' E 139°46'0 0.0
2014-Oct-28 15:22N 35°38' E 139°46'0 0.0
2014-Oct-28 14:34N 35°38' E 139°46'1 0.1
2014-Oct-28 03:33N 35°38' E 139°46'1 0.2
2014-Oct-27 23:14N 35°38' E 139°46'0 0.0
2014-Oct-27 22:14N 35°38' E 139°46'0 0.0
2014-Oct-27 21:32N 35°38' E 139°46'0 0.0
2014-Oct-27 20:33N 35°38' E 139°46'0 0.0
2014-Oct-27 19:33N 35°38' E 139°46'0 0.0
2014-Oct-27 18:34N 35°38' E 139°46'0 0.0
2014-Oct-27 17:33N 35°38' E 139°46'0 0.0
2014-Oct-27 16:34N 35°38' E 139°46'0 0.0
2014-Oct-27 15:33N 35°38' E 139°46'0 0.0
2014-Oct-27 14:33N 35°38' E 139°46'2 1.7
2014-Oct-27 13:31N 35°36' E 139°46'2 2.2
2014-Oct-27 12:30N 35°37' E 139°49'3 2.9
2014-Oct-27 11:31N 35°38' E 139°46'1 0.2
2014-Oct-27 08:19N 35°38' E 139°46'1 1.8
2014-Oct-27 07:32N 35°36' E 139°46'2 1.7
2014-Oct-27 06:22N 35°38' E 139°46'0 0.0
2014-Oct-27 04:20N 35°38' E 139°46'0 0.0
2014-Oct-27 03:31N 35°38' E 139°46'0 0.0
2014-Oct-27 01:22N 35°38' E 139°46'0 0.0
2014-Oct-26 22:14N 35°38' E 139°46'0 0.0
2014-Oct-26 21:31N 35°38' E 139°46'0 0.0
2014-Oct-26 20:29N 35°38' E 139°46'0 0.0
2014-Oct-26 13:27N 35°38' E 139°46'3 2.9
2014-Oct-26 12:32N 35°36' E 139°47'3 3.2
2014-Oct-26 11:33N 35°39' E 139°47'4 0.5
2014-Oct-26 03:33N 35°35' E 139°47'3 3.1
2014-Oct-26 02:33N 35°38' E 139°46'0 0.0
2014-Oct-25 09:31N 35°38' E 139°46'1 1.2
2014-Oct-25 08:32N 35°37' E 139°46'1 0.1
2014-Oct-25 00:29N 35°38' E 139°46'3 3.4
2014-Oct-24 23:32N 35°35' E 139°47'3 3.5
2014-Oct-24 22:33N 35°38' E 139°46'0 0.1
2014-Oct-24 18:11N 35°38' E 139°45'0 0.0
2014-Oct-24 17:20N 35°38' E 139°45'0 0.0
2014-Oct-24 16:23N 35°38' E 139°45'0 0.0
2014-Oct-24 15:25N 35°38' E 139°45'2 0.3
2014-Oct-24 10:31N 35°37' E 139°46'3 2.9
2014-Oct-24 09:33N 35°35' E 139°48'4 0.5
2014-Oct-24 01:14N 35°38' E 139°45'0 0.0
2014-Oct-24 00:34N 35°38' E 139°45'1 1.2
2014-Oct-23 23:33N 35°39' E 139°47'4 3.6
2014-Oct-23 22:33N 35°35' E 139°48'3 1.4
2014-Oct-23 20:07N 35°38' E 139°45'0 0.0
2014-Oct-23 17:34N 35°38' E 139°45'0 0.0
2014-Oct-23 16:32N 35°38' E 139°45'0 0.0
2014-Oct-23 15:27N 35°38' E 139°45'0 0.0
2014-Oct-23 04:29N 35°38' E 139°45'0 0.0
2014-Oct-23 03:25N 35°38' E 139°45'0 0.0
2014-Oct-22 23:28N 35°38' E 139°45'3 3.8
2014-Oct-22 22:33N 35°35' E 139°48'1 0.9
2014-Oct-22 21:32N 35°36' E 139°47'1 0.9
2014-Oct-22 20:33N 35°36' E 139°47'2 0.6
2014-Oct-22 17:15N 35°38' E 139°45'0 0.0
2014-Oct-22 16:18N 35°38' E 139°45'0 0.0
2014-Oct-22 15:29N 35°38' E 139°45'0 0.0
2014-Oct-22 14:28N 35°38' E 139°45'0 0.0
2014-Oct-22 13:32N 35°38' E 139°45'0 0.0
2014-Oct-22 05:28N 35°38' E 139°45'0 0.0
2014-Oct-22 01:24N 35°38' E 139°45'0 0.0
2014-Oct-22 00:33N 35°38' E 139°45'2 1.9
2014-Oct-21 23:34N 35°37' E 139°47'3 2.6
2014-Oct-21 22:34N 35°34' E 139°48'2 1.7
2014-Oct-21 21:33N 35°35' E 139°47'0 0.4
2014-Oct-21 20:33N 35°36' E 139°47'2 1.9
2014-Oct-21 19:33N 35°37' E 139°46'0 0.5
2014-Oct-21 18:31N 35°38' E 139°46'  
Track history (hours):
 
Tides and Currents Weather Stations Pressure Air Temp Water Temp Dewpoint Dewpoint Depression Visibility Wind Speed Wind Dir Waves Ship Positions

Kaio Maru

Last reported at 2014-Oct-31 16:32 UTC. Time now 2014-Oct-31 18:04 UTC.
Position N 35°38' E 139°46'.

Length 36 m; draft 3.2 m.

Type: Tug. MMSI: 431001455.

Date/timePositionNaut miles runAvg speedWind from/ knotsBaromVisibWave heightAir tempDewpointWater temp
2014-Oct-31 16:32N 35°38' E 139°46'0 0.0
2014-Oct-31 15:33N 35°38' E 139°46'0 0.0
2014-Oct-31 14:21N 35°38' E 139°46'0 0.0
2014-Oct-31 11:34N 35°38' E 139°46'0 0.0
2014-Oct-31 00:04N 35°38' E 139°46'0 0.0
2014-Oct-30 23:33N 35°38' E 139°46'2 1.6
2014-Oct-30 22:33N 35°37' E 139°46'4 3.7
2014-Oct-30 21:33N 35°34' E 139°49'5 4.7
2014-Oct-30 20:33N 35°38' E 139°46'0 0.2
2014-Oct-30 18:33N 35°38' E 139°46'0 0.0
2014-Oct-30 00:19N 35°38' E 139°46'0 0.0
2014-Oct-29 23:15N 35°38' E 139°46'0 0.0
2014-Oct-29 22:27N 35°38' E 139°46'0 0.0
2014-Oct-29 21:26N 35°38' E 139°46'0 0.0
2014-Oct-29 20:33N 35°38' E 139°46'0 0.1
2014-Oct-29 16:33N 35°38' E 139°46'0 0.2
2014-Oct-29 15:20N 35°38' E 139°46'0 0.0
2014-Oct-29 14:18N 35°38' E 139°46'0 0.0
2014-Oct-29 13:28N 35°38' E 139°46'4 2.2
2014-Oct-29 11:32N 35°35' E 139°48'3 2.5
2014-Oct-29 10:28N 35°37' E 139°46'2 1.9
2014-Oct-29 09:33N 35°38' E 139°45'2 2.2
2014-Oct-29 08:34N 35°36' E 139°47'2 0.2
2014-Oct-28 21:32N 35°38' E 139°46'0 0.0
2014-Oct-28 20:30N 35°38' E 139°46'0 0.0
2014-Oct-28 19:34N 35°38' E 139°46'0 0.0
2014-Oct-28 18:32N 35°38' E 139°46'0 0.0
2014-Oct-28 17:29N 35°38' E 139°46'0 0.0
2014-Oct-28 16:19N 35°38' E 139°46'0 0.0
2014-Oct-28 15:22N 35°38' E 139°46'0 0.0
2014-Oct-28 14:34N 35°38' E 139°46'1 0.1
2014-Oct-28 03:33N 35°38' E 139°46'1 0.2
2014-Oct-27 23:14N 35°38' E 139°46'0 0.0
2014-Oct-27 22:14N 35°38' E 139°46'0 0.0
2014-Oct-27 21:32N 35°38' E 139°46'0 0.0
2014-Oct-27 20:33N 35°38' E 139°46'0 0.0
2014-Oct-27 19:33N 35°38' E 139°46'0 0.0
2014-Oct-27 18:34N 35°38' E 139°46'0 0.0
2014-Oct-27 17:33N 35°38' E 139°46'0 0.0
2014-Oct-27 16:34N 35°38' E 139°46'0 0.0
2014-Oct-27 15:33N 35°38' E 139°46'0 0.0
2014-Oct-27 14:33N 35°38' E 139°46'2 1.7
2014-Oct-27 13:31N 35°36' E 139°46'2 2.2
2014-Oct-27 12:30N 35°37' E 139°49'3 2.9
2014-Oct-27 11:31N 35°38' E 139°46'1 0.2
2014-Oct-27 08:19N 35°38' E 139°46'1 1.8
2014-Oct-27 07:32N 35°36' E 139°46'2 1.7
2014-Oct-27 06:22N 35°38' E 139°46'0 0.0
2014-Oct-27 04:20N 35°38' E 139°46'0 0.0
2014-Oct-27 03:31N 35°38' E 139°46'0 0.0
2014-Oct-27 01:22N 35°38' E 139°46'0 0.0
2014-Oct-26 22:14N 35°38' E 139°46'0 0.0
2014-Oct-26 21:31N 35°38' E 139°46'0 0.0
2014-Oct-26 20:29N 35°38' E 139°46'0 0.0
2014-Oct-26 13:27N 35°38' E 139°46'3 2.9
2014-Oct-26 12:32N 35°36' E 139°47'3 3.2
2014-Oct-26 11:33N 35°39' E 139°47'4 0.5
2014-Oct-26 03:33N 35°35' E 139°47'3 3.1
2014-Oct-26 02:33N 35°38' E 139°46'0 0.0
2014-Oct-25 09:31N 35°38' E 139°46'1 1.2
2014-Oct-25 08:32N 35°37' E 139°46'1 0.1
2014-Oct-25 00:29N 35°38' E 139°46'3 3.4
2014-Oct-24 23:32N 35°35' E 139°47'3 3.5
2014-Oct-24 22:33N 35°38' E 139°46'0 0.1
2014-Oct-24 18:11N 35°38' E 139°45'0 0.0
2014-Oct-24 17:20N 35°38' E 139°45'0 0.0
2014-Oct-24 16:23N 35°38' E 139°45'0 0.0
2014-Oct-24 15:25N 35°38' E 139°45'2 0.3
2014-Oct-24 10:31N 35°37' E 139°46'3 2.9
2014-Oct-24 09:33N 35°35' E 139°48'4 0.5
2014-Oct-24 01:14N 35°38' E 139°45'0 0.0
2014-Oct-24 00:34N 35°38' E 139°45'1 1.2
2014-Oct-23 23:33N 35°39' E 139°47'4 3.6
2014-Oct-23 22:33N 35°35' E 139°48'3 1.4
2014-Oct-23 20:07N 35°38' E 139°45'0 0.0
2014-Oct-23 17:34N 35°38' E 139°45'0 0.0
2014-Oct-23 16:32N 35°38' E 139°45'0 0.0
2014-Oct-23 15:27N 35°38' E 139°45'0 0.0
2014-Oct-23 04:29N 35°38' E 139°45'0 0.0
2014-Oct-23 03:25N 35°38' E 139°45'0 0.0
2014-Oct-22 23:28N 35°38' E 139°45'3 3.8
2014-Oct-22 22:33N 35°35' E 139°48'1 0.9
2014-Oct-22 21:32N 35°36' E 139°47'1 0.9
2014-Oct-22 20:33N 35°36' E 139°47'2 0.6
2014-Oct-22 17:15N 35°38' E 139°45'0 0.0
2014-Oct-22 16:18N 35°38' E 139°45'0 0.0
2014-Oct-22 15:29N 35°38' E 139°45'0 0.0
2014-Oct-22 14:28N 35°38' E 139°45'0 0.0
2014-Oct-22 13:32N 35°38' E 139°45'0 0.0
2014-Oct-22 05:28N 35°38' E 139°45'0 0.0
2014-Oct-22 01:24N 35°38' E 139°45'0 0.0
2014-Oct-22 00:33N 35°38' E 139°45'2 1.9
2014-Oct-21 23:34N 35°37' E 139°47'3 2.6
2014-Oct-21 22:34N 35°34' E 139°48'2 1.7
2014-Oct-21 21:33N 35°35' E 139°47'0 0.4
2014-Oct-21 20:33N 35°36' E 139°47'2 1.9
2014-Oct-21 19:33N 35°37' E 139°46'0 0.5
2014-Oct-21 18:31N 35°38' E 139°46'  

Dump ship's entire track history